Time,TemperatureF,DewpointF,PressureIn,WindDirection,WindDirectionDegrees,WindSpeedMPH,WindSpeedGustMPH,Humidity,HourlyPrecipIn,Conditions,Clouds,dailyrainin,SolarRadiationWatts/m^2,SoftwareType,DateUTC
2013-12-08 00:01:00,19.6,12.6,30.48,WNW,291,0.0,7.0,74,0.00,,,0.00,0.0,meteohub,2013-12-08 05:01:00,
2013-12-08 00:02:00,19.6,12.6,30.48,WNW,291,0.0,7.0,74,0.00,,,0.00,0.0,meteohub,2013-12-08 05:02:00,
2013-12-08 00:07:00,19.6,12.6,30.48,WNW,291,1.0,7.0,74,0.00,,,0.00,0.0,meteohub,2013-12-08 05:07:00,
2013-12-08 00:12:00,19.8,12.7,30.48,NW,309,3.0,3.0,74,0.00,,,0.00,0.0,meteohub,2013-12-08 05:12:00,
2013-12-08 00:17:00,19.8,12.7,30.48,NW,321,1.0,3.0,74,0.00,,,0.00,0.0,meteohub,2013-12-08 05:17:00,
2013-12-08 00:22:00,19.8,13.1,30.48,WNW,300,1.0,5.0,75,0.00,,,0.00,0.0,meteohub,2013-12-08 05:22:00,
2013-12-08 00:27:00,19.8,13.5,30.48,WNW,286,3.0,5.0,76,0.00,,,0.00,0.0,meteohub,2013-12-08 05:27:00,
2013-12-08 00:32:00,19.6,13.6,30.49,NW,309,2.0,5.0,77,0.00,,,0.00,0.0,meteohub,2013-12-08 05:32:00,
2013-12-08 00:37:00,19.6,13.8,30.49,NW,315,1.0,4.0,78,0.00,,,0.00,0.0,meteohub,2013-12-08 05:37:00,
2013-12-08 00:42:00,19.4,14.2,30.48,WNW,301,0.0,4.0,80,0.00,,,0.00,0.0,meteohub,2013-12-08 05:42:00,
2013-12-08 00:47:00,19.2,14.4,30.48,NW,311,0.0,5.0,81,0.00,,,0.00,0.0,meteohub,2013-12-08 05:47:00,
2013-12-08 00:52:00,19.0,14.2,30.48,NW,311,0.0,6.0,81,0.00,,,0.00,0.0,meteohub,2013-12-08 05:52:00,
2013-12-08 00:57:00,19.0,13.8,30.48,NW,311,0.0,6.0,80,0.00,,,0.00,0.0,meteohub,2013-12-08 05:57:00,
2013-12-08 01:02:00,19.0,13.8,30.48,NW,319,4.0,4.0,80,0.00,,,0.00,0.0,meteohub,2013-12-08 06:02:00,
2013-12-08 01:07:00,19.0,13.1,30.48,SW,221,4.0,4.0,77,0.00,,,0.00,0.0,meteohub,2013-12-08 06:07:00,
2013-12-08 01:12:00,19.0,13.1,30.48,WNW,295,2.0,6.0,77,0.00,,,0.00,0.0,meteohub,2013-12-08 06:12:00,
2013-12-08 01:17:00,19.0,13.1,30.48,NW,314,2.0,6.0,77,0.00,,,0.00,0.0,meteohub,2013-12-08 06:17:00,
2013-12-08 01:22:00,18.9,13.1,30.48,NNW,333,1.0,6.0,78,0.00,,,0.00,0.0,meteohub,2013-12-08 06:22:00,
2013-12-08 01:27:00,18.9,13.5,30.48,NW,311,2.0,5.0,79,0.00,,,0.00,0.0,meteohub,2013-12-08 06:27:00,
2013-12-08 01:32:00,18.7,13.5,30.48,West,275,4.0,4.0,80,0.00,,,0.00,0.0,meteohub,2013-12-08 06:32:00,
2013-12-08 01:37:00,18.1,13.3,30.48,WNW,294,4.0,7.0,81,0.00,,,0.00,0.0,meteohub,2013-12-08 06:37:00,
2013-12-08 01:42:00,18.0,13.1,30.48,NW,315,2.0,7.0,81,0.00,,,0.00,0.0,meteohub,2013-12-08 06:42:00,
2013-12-08 01:47:00,17.8,13.3,30.48,WNW,297,1.0,7.0,82,0.00,,,0.00,0.0,meteohub,2013-12-08 06:47:00,
2013-12-08 01:52:00,17.8,13.3,30.48,NW,307,2.0,4.0,82,0.00,,,0.00,0.0,meteohub,2013-12-08 06:52:00,
2013-12-08 01:57:00,17.8,12.9,30.48,NW,305,1.0,4.0,81,0.00,,,0.00,0.0,meteohub,2013-12-08 06:57:00,
2013-12-08 02:02:00,17.6,12.6,30.48,NW,314,2.0,4.0,80,0.00,,,0.00,0.0,meteohub,2013-12-08 07:02:00,
2013-12-08 02:07:00,17.4,12.4,30.48,NW,315,0.0,4.0,80,0.00,,,0.00,0.0,meteohub,2013-12-08 07:07:00,
2013-12-08 02:12:00,17.4,12.6,30.48,NW,315,3.0,4.0,81,0.00,,,0.00,0.0,meteohub,2013-12-08 07:12:00,
2013-12-08 02:17:00,17.4,12.4,30.48,WNW,283,2.0,3.0,80,0.00,,,0.00,0.0,meteohub,2013-12-08 07:17:00,
2013-12-08 02:22:00,17.4,12.4,30.47,WNW,287,1.0,4.0,80,0.00,,,0.00,0.0,meteohub,2013-12-08 07:22:00,
2013-12-08 02:27:00,17.2,11.8,30.47,WNW,303,2.0,4.0,79,0.00,,,0.00,0.0,meteohub,2013-12-08 07:27:00,
2013-12-08 02:32:00,17.1,11.5,30.47,NW,309,3.0,5.0,78,0.00,,,0.00,0.0,meteohub,2013-12-08 07:32:00,
2013-12-08 02:37:00,16.9,10.6,30.47,NW,304,2.0,5.0,76,0.00,,,0.00,0.0,meteohub,2013-12-08 07:37:00,
2013-12-08 02:42:00,16.5,10.2,30.48,NW,316,4.0,6.0,76,0.00,,,0.00,0.0,meteohub,2013-12-08 07:42:00,
2013-12-08 02:47:00,16.5,10.0,30.48,WNW,302,2.0,6.0,75,0.00,,,0.00,0.0,meteohub,2013-12-08 07:47:00,
2013-12-08 02:52:00,16.3,9.9,30.48,WNW,302,1.0,6.0,75,0.00,,,0.00,0.0,meteohub,2013-12-08 07:52:00,
2013-12-08 02:57:00,16.3,9.9,30.48,WNW,298,2.0,4.0,75,0.00,,,0.00,0.0,meteohub,2013-12-08 07:57:00,
2013-12-08 03:02:00,16.2,9.3,30.48,WNW,300,1.0,4.0,74,0.00,,,0.00,0.0,meteohub,2013-12-08 08:02:00,
2013-12-08 03:07:00,16.0,9.1,30.48,WNW,294,3.0,3.0,74,0.00,,,0.00,0.0,meteohub,2013-12-08 08:07:00,
2013-12-08 03:12:00,15.6,8.8,30.48,WNW,296,1.0,4.0,74,0.00,,,0.00,0.0,meteohub,2013-12-08 08:12:00,
2013-12-08 03:18:00,15.4,8.6,30.48,NW,306,2.0,5.0,74,0.00,,,0.00,0.0,meteohub,2013-12-08 08:18:00,
2013-12-08 03:23:00,15.3,8.4,30.48,NW,306,2.0,5.0,74,0.00,,,0.00,0.0,meteohub,2013-12-08 08:23:00,
2013-12-08 03:28:00,15.1,8.2,30.48,NW,304,1.0,5.0,74,0.00,,,0.00,0.0,meteohub,2013-12-08 08:28:00,
2013-12-08 03:33:00,14.7,8.2,30.48,NW,306,0.0,3.0,75,0.00,,,0.00,0.0,meteohub,2013-12-08 08:33:00,
2013-12-08 03:38:00,14.7,8.2,30.48,NW,306,1.0,3.0,75,0.00,,,0.00,0.0,meteohub,2013-12-08 08:38:00,
2013-12-08 03:43:00,14.5,8.4,30.48,NW,306,1.0,3.0,76,0.00,,,0.00,0.0,meteohub,2013-12-08 08:43:00,
2013-12-08 03:48:00,14.4,8.4,30.48,NW,306,3.0,3.0,77,0.00,,,0.00,0.0,meteohub,2013-12-08 08:48:00,
2013-12-08 03:53:00,14.0,8.4,30.48,NW,306,1.0,3.0,78,0.00,,,0.00,0.0,meteohub,2013-12-08 08:53:00,
2013-12-08 03:58:00,13.8,8.8,30.48,NW,306,2.0,3.0,80,0.00,,,0.00,0.0,meteohub,2013-12-08 08:58:00,
2013-12-08 04:03:00,13.6,8.6,30.48,NW,306,2.0,3.0,80,0.00,,,0.00,0.0,meteohub,2013-12-08 09:03:00,
2013-12-08 04:08:00,13.5,8.8,30.48,NW,306,2.0,3.0,81,0.00,,,0.00,0.0,meteohub,2013-12-08 09:08:00,
2013-12-08 04:13:00,13.3,8.8,30.48,NW,306,2.0,2.0,82,0.00,,,0.00,0.0,meteohub,2013-12-08 09:13:00,
2013-12-08 04:18:00,13.1,8.6,30.49,NW,306,1.0,3.0,82,0.00,,,0.00,0.0,meteohub,2013-12-08 09:18:00,
2013-12-08 04:23:00,12.9,8.8,30.49,NW,306,2.0,3.0,83,0.00,,,0.00,0.0,meteohub,2013-12-08 09:23:00,
2013-12-08 04:28:00,12.7,8.6,30.50,NW,306,1.0,3.0,83,0.00,,,0.00,0.0,meteohub,2013-12-08 09:28:00,
2013-12-08 04:33:00,12.6,8.4,30.49,NW,306,2.0,3.0,83,0.00,,,0.00,0.0,meteohub,2013-12-08 09:33:00,
2013-12-08 04:38:00,12.6,8.6,30.49,NW,306,1.0,3.0,84,0.00,,,0.00,0.0,meteohub,2013-12-08 09:38:00,
2013-12-08 04:43:00,12.4,8.4,30.49,NW,306,1.0,3.0,84,0.00,,,0.00,0.0,meteohub,2013-12-08 09:43:00,
2013-12-08 04:48:00,12.2,8.2,30.49,NW,306,2.0,3.0,84,0.00,,,0.00,0.0,meteohub,2013-12-08 09:48:00,
2013-12-08 04:53:00,12.0,8.1,30.49,NW,306,1.0,3.0,84,0.00,,,0.00,0.0,meteohub,2013-12-08 09:53:00,
2013-12-08 04:58:00,12.0,8.4,30.49,NW,306,2.0,2.0,85,0.00,,,0.00,0.0,meteohub,2013-12-08 09:58:00,
2013-12-08 05:03:00,12.0,8.4,30.49,NW,306,2.0,2.0,85,0.00,,,0.00,0.0,meteohub,2013-12-08 10:03:00,
2013-12-08 05:08:00,12.0,8.4,30.50,NW,306,2.0,2.0,85,0.00,,,0.00,0.0,meteohub,2013-12-08 10:08:00,
2013-12-08 05:13:00,11.8,8.2,30.50,NW,306,2.0,2.0,85,0.00,,,0.00,0.0,meteohub,2013-12-08 10:13:00,
2013-12-08 05:18:00,11.8,8.4,30.50,NW,306,1.0,2.0,86,0.00,,,0.00,0.0,meteohub,2013-12-08 10:18:00,
2013-12-08 05:23:00,11.8,8.4,30.50,NW,306,2.0,2.0,86,0.00,,,0.00,0.0,meteohub,2013-12-08 10:23:00,
2013-12-08 05:28:00,11.8,8.2,30.50,NW,306,2.0,2.0,85,0.00,,,0.00,0.0,meteohub,2013-12-08 10:28:00,
2013-12-08 05:33:00,11.8,8.2,30.50,NW,306,2.0,3.0,85,0.00,,,0.00,0.0,meteohub,2013-12-08 10:33:00,
2013-12-08 05:38:00,11.8,7.9,30.50,NW,306,2.0,3.0,84,0.00,,,0.00,0.0,meteohub,2013-12-08 10:38:00,
2013-12-08 05:43:00,12.0,8.1,30.50,NW,306,2.0,3.0,84,0.00,,,0.00,0.0,meteohub,2013-12-08 10:43:00,
2013-12-08 05:48:00,12.2,8.1,30.50,NW,306,2.0,3.0,83,0.00,,,0.00,0.0,meteohub,2013-12-08 10:48:00,
2013-12-08 05:53:00,12.2,8.1,30.51,NW,306,2.0,3.0,83,0.00,,,0.00,0.0,meteohub,2013-12-08 10:53:00,
2013-12-08 05:58:00,12.4,7.9,30.51,NW,306,1.0,3.0,82,0.00,,,0.00,0.0,meteohub,2013-12-08 10:58:00,
2013-12-08 06:03:00,12.6,8.1,30.51,NW,306,2.0,3.0,82,0.00,,,0.00,0.0,meteohub,2013-12-08 11:03:00,
2013-12-08 06:08:00,12.6,8.1,30.51,NW,306,2.0,3.0,82,0.00,,,0.00,0.0,meteohub,2013-12-08 11:08:00,
2013-12-08 06:13:00,12.6,7.9,30.51,NW,306,0.0,3.0,81,0.00,,,0.00,0.0,meteohub,2013-12-08 11:13:00,
2013-12-08 06:18:00,12.6,8.1,30.51,NW,306,0.0,3.0,82,0.00,,,0.00,0.0,meteohub,2013-12-08 11:18:00,
2013-12-08 06:23:00,12.4,7.9,30.51,NW,306,0.0,3.0,82,0.00,,,0.00,0.0,meteohub,2013-12-08 11:23:00,
2013-12-08 06:28:00,12.2,7.7,30.51,NW,306,0.0,2.0,82,0.00,,,0.00,0.0,meteohub,2013-12-08 11:28:00,
2013-12-08 06:33:00,12.4,8.2,30.51,NW,306,1.0,2.0,83,0.00,,,0.00,0.0,meteohub,2013-12-08 11:33:00,
2013-12-08 06:38:00,12.4,7.9,30.52,NW,306,0.0,1.0,82,0.00,,,0.00,0.0,meteohub,2013-12-08 11:38:00,
2013-12-08 06:43:00,12.4,8.2,30.52,NW,306,0.0,1.0,83,0.00,,,0.00,0.0,meteohub,2013-12-08 11:43:00,
2013-12-08 06:48:00,12.4,8.2,30.52,NW,306,1.0,1.0,83,0.00,,,0.00,0.0,meteohub,2013-12-08 11:48:00,
2013-12-08 06:53:00,12.4,7.9,30.52,NW,306,0.0,1.0,82,0.00,,,0.00,0.0,meteohub,2013-12-08 11:53:00,
2013-12-08 06:58:00,12.4,8.2,30.52,NW,306,0.0,2.0,83,0.00,,,0.00,0.0,meteohub,2013-12-08 11:58:00,
2013-12-08 07:03:00,12.6,8.4,30.51,NW,306,1.0,2.0,83,0.00,,,0.00,0.0,meteohub,2013-12-08 12:03:00,
2013-12-08 07:08:00,12.6,8.4,30.51,NW,306,0.0,0.0,83,0.00,,,0.00,0.0,meteohub,2013-12-08 12:08:00,
2013-12-08 07:13:00,12.6,8.4,30.51,NW,306,0.0,1.0,83,0.00,,,0.00,0.0,meteohub,2013-12-08 12:13:00,
2013-12-08 07:18:00,12.7,8.6,30.51,NW,306,0.0,1.0,83,0.00,,,0.00,0.0,meteohub,2013-12-08 12:18:00,
2013-12-08 07:23:00,12.7,8.6,30.51,NW,306,0.0,1.0,83,0.00,,,0.00,0.0,meteohub,2013-12-08 12:23:00,
2013-12-08 07:28:00,12.7,8.2,30.51,NW,306,0.0,0.0,82,0.00,,,0.00,0.0,meteohub,2013-12-08 12:28:00,
2013-12-08 07:33:00,12.9,8.4,30.51,NW,306,0.0,0.0,82,0.00,,,0.00,0.0,meteohub,2013-12-08 12:33:00,
2013-12-08 07:38:00,12.9,8.4,30.50,NW,306,0.0,0.0,82,0.00,,,0.00,0.0,meteohub,2013-12-08 12:38:00,
2013-12-08 07:43:00,13.1,8.6,30.50,NW,306,0.0,0.0,82,0.00,,,0.00,0.0,meteohub,2013-12-08 12:43:00,
2013-12-08 07:48:00,13.3,8.8,30.50,NW,306,0.0,0.0,82,0.00,,,0.00,0.0,meteohub,2013-12-08 12:48:00,
2013-12-08 07:53:00,13.3,8.6,30.50,NW,306,0.0,0.0,81,0.00,,,0.00,0.0,meteohub,2013-12-08 12:53:00,
2013-12-08 07:58:00,13.3,8.6,30.50,NW,306,0.0,0.0,81,0.00,,,0.00,0.0,meteohub,2013-12-08 12:58:00,
2013-12-08 08:04:00,13.3,8.6,30.50,NW,306,0.0,0.0,81,0.00,,,0.00,0.0,meteohub,2013-12-08 13:04:00,
2013-12-08 08:09:00,13.1,8.6,30.50,NW,306,0.0,0.0,82,0.00,,,0.00,0.0,meteohub,2013-12-08 13:09:00,
2013-12-08 08:14:00,12.9,8.2,30.49,NW,306,0.0,0.0,81,0.00,,,0.00,7.0,meteohub,2013-12-08 13:14:00,
2013-12-08 08:19:00,13.1,8.4,30.49,NW,306,0.0,0.0,81,0.00,,,0.00,11.0,meteohub,2013-12-08 13:19:00,
2013-12-08 08:24:00,13.1,8.6,30.48,NW,306,0.0,0.0,82,0.00,,,0.00,18.0,meteohub,2013-12-08 13:24:00,
2013-12-08 08:29:00,13.1,8.4,30.49,NW,306,0.0,0.0,81,0.00,,,0.00,19.0,meteohub,2013-12-08 13:29:00,
2013-12-08 08:34:00,13.1,8.6,30.49,NW,306,0.0,0.0,82,0.00,,,0.00,25.0,meteohub,2013-12-08 13:34:00,
2013-12-08 08:39:00,13.3,8.8,30.48,NW,306,0.0,0.0,82,0.00,,,0.00,33.0,meteohub,2013-12-08 13:39:00,
2013-12-08 08:44:00,13.3,8.8,30.48,NW,306,1.0,0.0,82,0.00,,,0.00,44.0,meteohub,2013-12-08 13:44:00,
2013-12-08 08:49:00,13.5,9.0,30.48,NW,306,0.0,2.0,82,0.00,,,0.00,49.0,meteohub,2013-12-08 13:49:00,
2013-12-08 08:54:00,13.6,9.1,30.47,NW,306,1.0,2.0,82,0.00,,,0.00,51.0,meteohub,2013-12-08 13:54:00,
2013-12-08 08:59:00,13.8,9.3,30.47,NW,323,1.0,2.0,82,0.00,,,0.00,53.0,meteohub,2013-12-08 13:59:00,
2013-12-08 09:04:00,13.8,9.3,30.48,NW,323,1.0,2.0,82,0.00,,,0.00,54.0,meteohub,2013-12-08 14:04:00,
2013-12-08 09:10:00,14.2,9.5,30.48,NNW,327,0.0,2.0,81,0.00,,,0.00,63.0,meteohub,2013-12-08 14:10:00,
2013-12-08 09:15:00,14.2,9.1,30.48,NNW,327,0.0,2.0,80,0.00,,,0.00,65.0,meteohub,2013-12-08 14:15:00,
2013-12-08 09:20:00,14.4,9.3,30.48,NNW,327,0.0,2.0,80,0.00,,,0.00,69.0,meteohub,2013-12-08 14:20:00,
2013-12-08 09:25:00,14.5,9.5,30.48,NNW,328,0.0,2.0,80,0.00,,,0.00,63.0,meteohub,2013-12-08 14:25:00,
2013-12-08 09:30:00,14.7,10.0,30.48,NNW,328,0.0,2.0,81,0.00,,,0.00,72.0,meteohub,2013-12-08 14:30:00,
2013-12-08 09:35:00,14.7,9.7,30.48,NNW,328,0.0,2.0,80,0.00,,,0.00,83.0,meteohub,2013-12-08 14:35:00,
2013-12-08 09:40:00,14.9,9.5,30.47,WNW,283,2.0,2.0,79,0.00,,,0.00,88.0,meteohub,2013-12-08 14:40:00,
2013-12-08 09:45:00,15.1,9.7,30.47,West,279,1.0,2.0,79,0.00,,,0.00,88.0,meteohub,2013-12-08 14:45:00,
2013-12-08 09:50:00,15.3,9.9,30.48,West,279,1.0,2.0,79,0.00,,,0.00,104.0,meteohub,2013-12-08 14:50:00,
2013-12-08 09:55:00,15.4,10.0,30.48,West,279,0.0,2.0,79,0.00,,,0.00,104.0,meteohub,2013-12-08 14:55:00,
2013-12-08 10:00:00,15.6,10.2,30.48,West,279,0.0,2.0,79,0.00,,,0.00,100.0,meteohub,2013-12-08 15:00:00,
2013-12-08 10:05:00,16.0,10.4,30.48,West,279,0.0,2.0,78,0.00,,,0.00,102.0,meteohub,2013-12-08 15:05:00,
2013-12-08 10:10:00,16.0,10.4,30.48,West,279,1.0,2.0,78,0.00,,,0.00,102.0,meteohub,2013-12-08 15:10:00,
2013-12-08 10:15:00,16.2,10.6,30.48,West,261,0.0,3.0,78,0.00,,,0.00,105.0,meteohub,2013-12-08 15:15:00,
2013-12-08 10:20:00,16.3,10.8,30.48,WSW,257,1.0,3.0,78,0.00,,,0.00,105.0,meteohub,2013-12-08 15:20:00,
2013-12-08 10:25:00,16.3,10.4,30.49,WSW,257,1.0,3.0,77,0.00,,,0.00,100.0,meteohub,2013-12-08 15:25:00,
2013-12-08 10:30:00,16.3,10.4,30.49,SW,226,0.0,5.0,77,0.00,,,0.00,102.0,meteohub,2013-12-08 15:30:00,
2013-12-08 10:35:00,16.5,10.9,30.48,SW,229,0.0,5.0,78,0.00,,,0.00,95.0,meteohub,2013-12-08 15:35:00,
2013-12-08 10:40:00,16.7,10.8,30.48,SW,229,2.0,5.0,77,0.00,,,0.00,98.0,meteohub,2013-12-08 15:40:00,
2013-12-08 10:45:00,16.7,10.4,30.49,SW,229,2.0,4.0,76,0.00,,,0.00,98.0,meteohub,2013-12-08 15:45:00,
2013-12-08 10:50:00,16.5,10.2,30.49,South,185,2.0,3.0,76,0.00,,,0.00,107.0,meteohub,2013-12-08 15:50:00,
2013-12-08 10:55:00,16.5,10.6,30.49,SSW,196,4.0,4.0,77,0.00,,,0.00,127.0,meteohub,2013-12-08 15:55:00,
2013-12-08 11:00:00,16.9,10.9,30.49,SW,232,1.0,5.0,77,0.00,,,0.00,134.0,meteohub,2013-12-08 16:00:00,
2013-12-08 11:05:00,17.1,10.8,30.48,WSW,240,3.0,5.0,76,0.00,,,0.00,123.0,meteohub,2013-12-08 16:05:00,
2013-12-08 11:11:00,17.2,11.3,30.48,SW,226,1.0,5.0,77,0.00,,,0.00,125.0,meteohub,2013-12-08 16:11:00,
2013-12-08 11:16:00,17.4,11.5,30.48,SW,226,1.0,4.0,77,0.00,,,0.00,139.0,meteohub,2013-12-08 16:16:00,
2013-12-08 11:21:00,17.8,11.8,30.48,SW,226,2.0,4.0,77,0.00,,,0.00,130.0,meteohub,2013-12-08 16:21:00,
2013-12-08 11:26:00,17.8,11.5,30.47,SW,232,0.0,3.0,76,0.00,,,0.00,123.0,meteohub,2013-12-08 16:26:00,
2013-12-08 11:31:00,17.8,11.5,30.47,SW,232,1.0,3.0,76,0.00,,,0.00,120.0,meteohub,2013-12-08 16:31:00,
2013-12-08 11:36:00,17.8,11.8,30.47,SSE,155,1.0,3.0,77,0.00,,,0.00,125.0,meteohub,2013-12-08 16:36:00,
2013-12-08 11:41:00,17.8,11.5,30.47,SSE,161,0.0,3.0,76,0.00,,,0.00,137.0,meteohub,2013-12-08 16:41:00,
2013-12-08 11:46:00,18.0,12.0,30.46,SSW,200,3.0,4.0,77,0.00,,,0.00,148.0,meteohub,2013-12-08 16:46:00,
2013-12-08 11:51:00,18.0,11.7,30.46,SW,226,0.0,4.0,76,0.00,,,0.00,135.0,meteohub,2013-12-08 16:51:00,
2013-12-08 11:56:00,17.8,11.5,30.45,East,95,1.0,5.0,76,0.00,,,0.00,113.0,meteohub,2013-12-08 16:56:00,
2013-12-08 12:01:00,17.8,11.5,30.45,SSE,158,4.0,5.0,76,0.00,,,0.00,125.0,meteohub,2013-12-08 17:01:00,
2013-12-08 12:06:00,17.8,11.8,30.44,East,98,3.0,5.0,77,0.00,,,0.00,128.0,meteohub,2013-12-08 17:06:00,
2013-12-08 12:11:00,18.0,12.0,30.44,ENE,78,3.0,5.0,77,0.00,,,0.00,149.0,meteohub,2013-12-08 17:11:00,
2013-12-08 12:16:00,18.1,12.2,30.43,SSW,206,4.0,5.0,77,0.00,,,0.00,158.0,meteohub,2013-12-08 17:16:00,
2013-12-08 12:21:00,18.0,11.7,30.43,SSE,167,1.0,5.0,76,0.00,,,0.00,135.0,meteohub,2013-12-08 17:21:00,
2013-12-08 12:26:00,18.0,12.0,30.43,SE,142,1.0,5.0,77,0.00,,,0.00,111.0,meteohub,2013-12-08 17:26:00,
2013-12-08 12:31:00,18.1,12.2,30.43,SSE,154,2.0,5.0,77,0.00,,,0.00,123.0,meteohub,2013-12-08 17:31:00,
2013-12-08 12:36:00,18.3,12.4,30.43,SSE,166,3.0,5.0,77,0.00,,,0.00,135.0,meteohub,2013-12-08 17:36:00,
2013-12-08 12:41:00,18.5,12.7,30.43,SSW,209,3.0,5.0,78,0.00,,,0.00,132.0,meteohub,2013-12-08 17:41:00,
2013-12-08 12:46:00,18.3,12.6,30.43,SSE,164,0.0,5.0,78,0.00,,,0.00,123.0,meteohub,2013-12-08 17:46:00,
2013-12-08 12:51:00,18.5,12.7,30.43,East,97,0.0,5.0,78,0.00,,,0.00,120.0,meteohub,2013-12-08 17:51:00,
2013-12-08 12:56:00,18.7,13.3,30.43,South,169,4.0,4.0,79,0.00,,,0.00,125.0,meteohub,2013-12-08 17:56:00,
2013-12-08 13:01:00,18.7,13.5,30.43,SSW,204,1.0,5.0,80,0.00,,,0.00,114.0,meteohub,2013-12-08 18:01:00,
2013-12-08 13:06:00,18.7,13.5,30.43,SE,141,3.0,5.0,80,0.00,,,0.00,120.0,meteohub,2013-12-08 18:06:00,
2013-12-08 13:11:00,18.3,13.5,30.43,SSE,153,1.0,7.0,81,0.00,,,0.00,113.0,meteohub,2013-12-08 18:11:00,
2013-12-08 13:16:00,18.3,13.8,30.42,SE,131,0.0,7.0,82,0.00,,,0.00,105.0,meteohub,2013-12-08 18:16:00,
2013-12-08 13:21:00,18.3,13.8,30.42,East,86,2.0,6.0,82,0.00,,,0.00,128.0,meteohub,2013-12-08 18:21:00,
2013-12-08 13:26:00,18.7,14.7,30.42,ESE,107,3.0,6.0,84,0.00,,,0.00,130.0,meteohub,2013-12-08 18:26:00,
2013-12-08 13:31:00,18.5,14.0,30.41,SSE,157,0.0,6.0,82,0.00,,,0.00,121.0,meteohub,2013-12-08 18:31:00,
2013-12-08 13:36:00,18.7,14.4,30.41,SSE,164,1.0,5.0,83,0.00,,,0.00,104.0,meteohub,2013-12-08 18:36:00,
2013-12-08 13:41:00,18.7,14.4,30.41,East,81,3.0,5.0,83,0.00,,,0.00,98.0,meteohub,2013-12-08 18:41:00,
2013-12-08 13:46:00,18.3,14.0,30.41,ESE,112,3.0,5.0,83,0.00,,,0.00,97.0,meteohub,2013-12-08 18:46:00,
2013-12-08 13:51:00,18.3,14.5,30.40,East,87,2.0,7.0,85,0.00,,,0.00,107.0,meteohub,2013-12-08 18:51:00,
2013-12-08 13:56:00,18.3,14.5,30.40,SSW,209,3.0,7.0,85,0.00,,,0.00,95.0,meteohub,2013-12-08 18:56:00,
2013-12-08 14:02:00,18.3,14.9,30.40,SE,136,1.0,6.0,86,0.00,,,0.00,91.0,meteohub,2013-12-08 19:02:00,
2013-12-08 14:07:00,18.3,14.9,30.40,East,88,1.0,6.0,86,0.00,,,0.00,84.0,meteohub,2013-12-08 19:07:00,
2013-12-08 14:12:00,18.5,15.3,30.39,East,84,2.0,6.0,87,0.00,,,0.00,93.0,meteohub,2013-12-08 19:12:00,
2013-12-08 14:17:00,18.3,14.9,30.39,South,177,3.0,6.0,86,0.00,,,0.00,90.0,meteohub,2013-12-08 19:17:00,
2013-12-08 14:22:00,18.3,14.9,30.39,SE,141,3.0,5.0,86,0.00,,,0.00,93.0,meteohub,2013-12-08 19:22:00,
2013-12-08 14:27:00,18.3,14.9,30.39,SSE,150,1.0,7.0,86,0.00,,,0.00,93.0,meteohub,2013-12-08 19:27:00,
2013-12-08 14:32:00,18.5,15.1,30.39,South,169,1.0,7.0,86,0.00,,,0.00,86.0,meteohub,2013-12-08 19:32:00,
2013-12-08 14:37:00,18.7,15.4,30.39,SE,141,2.0,7.0,87,0.00,,,0.00,84.0,meteohub,2013-12-08 19:37:00,
2013-12-08 14:42:00,18.7,15.4,30.38,SSE,160,3.0,5.0,87,0.00,,,0.00,83.0,meteohub,2013-12-08 19:42:00,
2013-12-08 14:47:00,18.9,15.6,30.38,SE,127,2.0,5.0,87,0.00,,,0.00,81.0,meteohub,2013-12-08 19:47:00,
2013-12-08 14:52:00,18.7,14.9,30.38,SSE,148,4.0,6.0,85,0.00,,,0.00,76.0,meteohub,2013-12-08 19:52:00,
2013-12-08 14:57:00,18.7,15.3,30.38,ESE,123,2.0,8.0,86,0.00,,,0.00,79.0,meteohub,2013-12-08 19:57:00,
2013-12-08 15:02:00,18.7,15.3,30.38,SE,134,2.0,8.0,86,0.00,,,0.00,70.0,meteohub,2013-12-08 20:02:00,
2013-12-08 15:07:00,18.9,15.4,30.38,ESE,121,0.0,7.0,86,0.00,,,0.00,69.0,meteohub,2013-12-08 20:07:00,
2013-12-08 15:12:00,18.9,15.4,30.38,East,88,2.0,4.0,86,0.00,,,0.00,72.0,meteohub,2013-12-08 20:12:00,
2013-12-08 15:17:00,18.9,15.4,30.37,SSE,155,0.0,5.0,86,0.00,,,0.00,77.0,meteohub,2013-12-08 20:17:00,
2013-12-08 15:22:00,18.9,15.6,30.37,SE,128,2.0,5.0,87,0.00,,,0.00,74.0,meteohub,2013-12-08 20:22:00,
2013-12-08 15:27:00,18.9,15.6,30.37,ESE,123,2.0,5.0,87,0.00,,,0.00,60.0,meteohub,2013-12-08 20:27:00,
2013-12-08 15:32:00,18.9,15.6,30.36,South,184,1.0,5.0,87,0.00,,,0.00,47.0,meteohub,2013-12-08 20:32:00,
2013-12-08 15:37:00,18.9,15.6,30.36,SE,142,4.0,6.0,87,0.00,,,0.00,42.0,meteohub,2013-12-08 20:37:00,
2013-12-08 15:42:00,18.9,15.6,30.36,SSE,163,3.0,6.0,87,0.00,,,0.00,40.0,meteohub,2013-12-08 20:42:00,
2013-12-08 15:47:00,18.9,15.6,30.36,ESE,117,2.0,6.0,87,0.00,,,0.00,32.0,meteohub,2013-12-08 20:47:00,
2013-12-08 15:52:00,18.9,15.6,30.36,East,86,1.0,6.0,87,0.00,,,0.00,28.0,meteohub,2013-12-08 20:52:00,
2013-12-08 15:57:00,18.7,15.4,30.35,East,84,3.0,6.0,87,0.00,,,0.00,28.0,meteohub,2013-12-08 20:57:00,
2013-12-08 16:02:00,18.7,15.8,30.35,ESE,117,2.0,7.0,88,0.00,,,0.00,28.0,meteohub,2013-12-08 21:02:00,
2013-12-08 16:07:00,18.7,15.4,30.35,ESE,103,4.0,7.0,87,0.00,,,0.00,26.0,meteohub,2013-12-08 21:07:00,
2013-12-08 16:12:00,18.5,15.6,30.34,ESE,115,1.0,7.0,88,0.00,,,0.00,18.0,meteohub,2013-12-08 21:12:00,
2013-12-08 16:17:00,18.5,15.6,30.33,ENE,71,5.0,7.0,88,0.00,,,0.00,16.0,meteohub,2013-12-08 21:17:00,
2013-12-08 16:22:00,18.5,15.8,30.33,East,80,2.0,8.0,89,0.00,,,0.00,16.0,meteohub,2013-12-08 21:22:00,
2013-12-08 16:27:00,18.3,15.6,30.32,East,84,5.0,8.0,89,0.00,,,0.00,12.0,meteohub,2013-12-08 21:27:00,
2013-12-08 16:32:00,18.3,15.6,30.32,East,79,3.0,8.0,89,0.00,,,0.00,9.0,meteohub,2013-12-08 21:32:00,
2013-12-08 16:37:00,18.1,15.3,30.33,East,100,2.0,7.0,88,0.00,,,0.00,7.0,meteohub,2013-12-08 21:37:00,
2013-12-08 16:42:00,18.1,15.4,30.32,SE,129,0.0,7.0,89,0.00,,,0.00,0.0,meteohub,2013-12-08 21:42:00,
2013-12-08 16:47:00,18.1,15.4,30.33,SE,135,2.0,7.0,89,0.00,,,0.00,0.0,meteohub,2013-12-08 21:47:00,
2013-12-08 16:52:00,18.1,15.4,30.32,ESE,111,1.0,7.0,89,0.00,,,0.00,0.0,meteohub,2013-12-08 21:52:00,
2013-12-08 16:57:00,18.1,15.4,30.32,SSE,160,1.0,6.0,89,0.00,,,0.00,0.0,meteohub,2013-12-08 21:57:00,
2013-12-08 17:02:00,18.1,15.4,30.32,SE,146,1.0,4.0,89,0.00,,,0.00,0.0,meteohub,2013-12-08 22:02:00,
2013-12-08 17:07:00,18.3,15.6,30.32,East,84,3.0,4.0,89,0.00,,,0.00,0.0,meteohub,2013-12-08 22:07:00,
2013-12-08 17:12:00,18.3,15.6,30.31,East,92,3.0,6.0,89,0.00,,,0.00,0.0,meteohub,2013-12-08 22:12:00,
2013-12-08 17:17:00,18.3,15.6,30.31,SSE,147,2.0,6.0,89,0.00,,,0.00,0.0,meteohub,2013-12-08 22:17:00,
2013-12-08 17:22:00,18.3,15.6,30.31,East,98,1.0,6.0,89,0.00,,,0.00,0.0,meteohub,2013-12-08 22:22:00,
2013-12-08 17:27:00,18.3,15.8,30.30,ESE,104,1.0,5.0,90,0.00,,,0.00,0.0,meteohub,2013-12-08 22:27:00,
2013-12-08 17:32:00,18.3,15.6,30.30,East,88,5.0,5.0,89,0.00,,,0.00,0.0,meteohub,2013-12-08 22:32:00,
2013-12-08 17:37:00,18.3,15.6,30.30,SSE,148,3.0,7.0,89,0.00,,,0.00,0.0,meteohub,2013-12-08 22:37:00,
2013-12-08 17:42:00,18.1,15.4,30.30,SE,130,3.0,7.0,89,0.00,,,0.00,0.0,meteohub,2013-12-08 22:42:00,
2013-12-08 17:47:00,18.1,15.4,30.30,ESE,111,5.0,7.0,89,0.00,,,0.00,0.0,meteohub,2013-12-08 22:47:00,
2013-12-08 17:52:00,18.1,15.4,30.29,East,88,3.0,7.0,89,0.00,,,0.00,0.0,meteohub,2013-12-08 22:52:00,
2013-12-08 17:57:00,18.1,15.4,30.29,ESE,104,2.0,7.0,89,0.00,,,0.00,0.0,meteohub,2013-12-08 22:57:00,
2013-12-08 18:02:00,18.1,15.4,30.29,SE,125,3.0,7.0,89,0.00,,,0.00,0.0,meteohub,2013-12-08 23:02:00,
2013-12-08 18:07:00,18.1,15.4,30.29,SE,134,4.0,7.0,89,0.00,,,0.00,0.0,meteohub,2013-12-08 23:07:00,
2013-12-08 18:12:00,18.1,15.4,30.29,ESE,109,1.0,9.0,89,0.00,,,0.00,0.0,meteohub,2013-12-08 23:12:00,
2013-12-08 18:17:00,18.1,15.4,30.28,SE,144,4.0,9.0,89,0.00,,,0.00,0.0,meteohub,2013-12-08 23:17:00,
2013-12-08 18:22:00,18.1,15.4,30.28,ESE,115,2.0,9.0,89,0.00,,,0.00,0.0,meteohub,2013-12-08 23:22:00,
2013-12-08 18:27:00,18.1,15.6,30.27,East,91,3.0,9.0,90,0.00,,,0.00,0.0,meteohub,2013-12-08 23:27:00,
2013-12-08 18:32:00,18.1,15.6,30.27,SSE,164,0.0,9.0,90,0.00,,,0.00,0.0,meteohub,2013-12-08 23:32:00,
2013-12-08 18:37:00,18.1,15.6,30.27,South,179,3.0,7.0,90,0.00,,,0.00,0.0,meteohub,2013-12-08 23:37:00,
2013-12-08 18:42:00,18.1,15.6,30.27,SE,127,2.0,7.0,90,0.00,,,0.00,0.0,meteohub,2013-12-08 23:42:00,
2013-12-08 18:47:00,18.1,15.6,30.26,SE,134,1.0,7.0,90,0.00,,,0.00,0.0,meteohub,2013-12-08 23:47:00,
2013-12-08 18:52:00,18.1,15.6,30.26,ESE,118,2.0,7.0,90,0.00,,,0.00,0.0,meteohub,2013-12-08 23:52:00,
2013-12-08 18:57:00,18.1,15.6,30.26,ESE,108,2.0,7.0,90,0.00,,,0.00,0.0,meteohub,2013-12-08 23:57:00,
2013-12-08 19:02:00,18.1,15.6,30.25,ESE,114,4.0,7.0,90,0.00,,,0.00,0.0,meteohub,2013-12-09 00:02:00,
2013-12-08 19:07:00,18.1,15.6,30.25,ESE,109,4.0,7.0,90,0.00,,,0.00,0.0,meteohub,2013-12-09 00:07:00,
2013-12-08 19:12:00,18.3,15.6,30.25,ESE,118,2.0,7.0,89,0.00,,,0.00,0.0,meteohub,2013-12-09 00:12:00,
2013-12-08 19:17:00,18.3,15.6,30.25,SE,140,2.0,7.0,89,0.00,,,0.00,0.0,meteohub,2013-12-09 00:17:00,
2013-12-08 19:22:00,18.3,15.6,30.25,SSE,165,1.0,5.0,89,0.00,,,0.00,0.0,meteohub,2013-12-09 00:22:00,
2013-12-08 19:27:00,18.3,15.6,30.25,SSW,195,1.0,5.0,89,0.00,,,0.00,0.0,meteohub,2013-12-09 00:27:00,
2013-12-08 19:32:00,18.3,15.6,30.25,SSE,163,2.0,5.0,89,0.00,,,0.00,0.0,meteohub,2013-12-09 00:32:00,
2013-12-08 19:37:00,18.3,15.8,30.25,SE,146,1.0,7.0,90,0.00,,,0.00,0.0,meteohub,2013-12-09 00:37:00,
2013-12-08 19:42:00,18.3,15.8,30.24,ESE,119,1.0,7.0,90,0.00,,,0.00,0.0,meteohub,2013-12-09 00:42:00,
2013-12-08 19:47:00,18.3,15.8,30.24,South,181,1.0,7.0,90,0.00,,,0.00,0.0,meteohub,2013-12-09 00:47:00,
2013-12-08 19:52:00,18.5,16.0,30.24,SSE,148,3.0,5.0,90,0.00,,,0.00,0.0,meteohub,2013-12-09 00:52:00,
2013-12-08 19:57:00,18.7,16.5,30.23,South,172,2.0,6.0,91,0.01,,,0.01,0.0,meteohub,2013-12-09 00:57:00,
2013-12-08 20:02:00,18.7,16.5,30.23,SSE,165,3.0,6.0,91,0.01,,,0.01,0.0,meteohub,2013-12-09 01:02:00,
2013-12-08 20:07:00,18.7,16.5,30.23,SSE,165,1.0,6.0,91,0.01,,,0.01,0.0,meteohub,2013-12-09 01:07:00,
2013-12-08 20:12:00,18.7,16.5,30.23,SSE,165,1.0,5.0,91,0.01,,,0.01,0.0,meteohub,2013-12-09 01:12:00,
2013-12-08 20:17:00,18.7,16.5,30.23,South,178,2.0,5.0,91,0.01,,,0.01,0.0,meteohub,2013-12-09 01:17:00,
2013-12-08 20:22:00,18.7,16.5,30.22,SSE,163,1.0,4.0,91,0.01,,,0.01,0.0,meteohub,2013-12-09 01:22:00,
2013-12-08 20:27:00,18.7,16.5,30.22,South,169,1.0,3.0,91,0.01,,,0.01,0.0,meteohub,2013-12-09 01:27:00,
2013-12-08 20:32:00,18.7,16.5,30.22,SSE,157,1.0,3.0,91,0.01,,,0.01,0.0,meteohub,2013-12-09 01:32:00,
2013-12-08 20:37:00,18.7,16.5,30.22,SSE,157,1.0,3.0,91,0.01,,,0.01,0.0,meteohub,2013-12-09 01:37:00,
2013-12-08 20:42:00,18.7,16.5,30.21,SSE,157,0.0,3.0,91,0.01,,,0.01,0.0,meteohub,2013-12-09 01:42:00,
2013-12-08 20:47:00,18.9,16.9,30.21,SSE,157,0.0,3.0,92,0.01,,,0.01,0.0,meteohub,2013-12-09 01:47:00,
2013-12-08 20:52:00,18.9,16.9,30.20,SSE,157,0.0,2.0,92,0.00,,,0.01,0.0,meteohub,2013-12-09 01:52:00,
2013-12-08 20:57:00,18.9,16.9,30.20,SSE,155,0.0,2.0,92,0.00,,,0.01,0.0,meteohub,2013-12-09 01:57:00,
2013-12-08 21:02:00,18.9,16.9,30.19,SSE,155,0.0,2.0,92,0.00,,,0.01,0.0,meteohub,2013-12-09 02:02:00,
2013-12-08 21:07:00,18.9,16.9,30.18,East,96,2.0,2.0,92,0.01,,,0.02,0.0,meteohub,2013-12-09 02:07:00,
2013-12-08 21:12:00,18.9,16.9,30.18,ENE,59,2.0,3.0,92,0.01,,,0.02,0.0,meteohub,2013-12-09 02:12:00,
2013-12-08 21:17:00,18.9,16.9,30.17,NE,46,2.0,3.0,92,0.01,,,0.02,0.0,meteohub,2013-12-09 02:17:00,
2013-12-08 21:22:00,18.9,16.9,30.17,ENE,76,0.0,3.0,92,0.01,,,0.02,0.0,meteohub,2013-12-09 02:22:00,
2013-12-08 21:27:00,19.0,17.1,30.17,ENE,59,0.0,3.0,92,0.01,,,0.02,0.0,meteohub,2013-12-09 02:27:00,
2013-12-08 21:32:00,19.0,17.1,30.16,East,80,1.0,3.0,92,0.01,,,0.02,0.0,meteohub,2013-12-09 02:32:00,
2013-12-08 21:37:00,19.0,17.1,30.16,ENE,64,3.0,3.0,92,0.01,,,0.02,0.0,meteohub,2013-12-09 02:37:00,
2013-12-08 21:42:00,19.0,17.4,30.15,ENE,64,0.0,3.0,93,0.01,,,0.02,0.0,meteohub,2013-12-09 02:42:00,
2013-12-08 21:47:00,19.0,17.4,30.15,ENE,65,1.0,3.0,93,0.01,,,0.02,0.0,meteohub,2013-12-09 02:47:00,
2013-12-08 21:52:00,19.0,17.4,30.14,ENE,62,1.0,3.0,93,0.01,,,0.02,0.0,meteohub,2013-12-09 02:52:00,
2013-12-08 21:57:00,19.0,17.1,30.14,ENE,77,1.0,3.0,92,0.01,,,0.02,0.0,meteohub,2013-12-09 02:57:00,
2013-12-08 22:02:00,19.0,17.1,30.14,ENE,78,1.0,4.0,92,0.00,,,0.02,0.0,meteohub,2013-12-09 03:02:00,
2013-12-08 22:07:00,19.2,17.6,30.13,ENE,78,0.0,4.0,93,0.00,,,0.02,0.0,meteohub,2013-12-09 03:07:00,
2013-12-08 22:12:00,19.2,17.6,30.13,ENE,78,1.0,4.0,93,0.00,,,0.02,0.0,meteohub,2013-12-09 03:12:00,
2013-12-08 22:17:00,19.2,17.6,30.12,ENE,78,0.0,2.0,93,0.00,,,0.02,0.0,meteohub,2013-12-09 03:17:00,
2013-12-08 22:22:00,19.4,17.8,30.12,ENE,78,0.0,2.0,93,0.00,,,0.02,0.0,meteohub,2013-12-09 03:22:00,
2013-12-08 22:27:00,19.4,17.8,30.12,ENE,78,0.0,2.0,93,0.00,,,0.02,0.0,meteohub,2013-12-09 03:27:00,
2013-12-08 22:32:00,19.6,18.0,30.12,ENE,78,0.0,2.0,93,0.00,,,0.02,0.0,meteohub,2013-12-09 03:32:00,
2013-12-08 22:37:00,19.6,18.0,30.12,ENE,78,0.0,1.0,93,0.00,,,0.02,0.0,meteohub,2013-12-09 03:37:00,
2013-12-08 22:42:00,19.6,18.0,30.11,ENE,78,0.0,0.0,93,0.00,,,0.02,0.0,meteohub,2013-12-09 03:42:00,
2013-12-08 22:47:00,19.8,18.1,30.11,ENE,78,0.0,2.0,93,0.00,,,0.02,0.0,meteohub,2013-12-09 03:47:00,
2013-12-08 22:52:00,19.9,18.3,30.11,ENE,78,0.0,2.0,93,0.00,,,0.02,0.0,meteohub,2013-12-09 03:52:00,
2013-12-08 22:57:00,19.9,18.3,30.10,ENE,78,0.0,2.0,93,0.00,,,0.02,0.0,meteohub,2013-12-09 03:57:00,
2013-12-08 23:02:00,20.1,18.5,30.10,ENE,78,0.0,1.0,93,0.00,,,0.02,0.0,meteohub,2013-12-09 04:02:00,
2013-12-08 23:07:00,20.1,18.5,30.09,ENE,78,0.0,1.0,93,0.00,,,0.02,0.0,meteohub,2013-12-09 04:07:00,
2013-12-08 23:12:00,20.3,18.7,30.09,ENE,78,0.0,1.0,93,0.01,,,0.03,0.0,meteohub,2013-12-09 04:12:00,
2013-12-08 23:17:00,20.5,19.0,30.09,ENE,78,1.0,1.0,94,0.01,,,0.03,0.0,meteohub,2013-12-09 04:17:00,
2013-12-08 23:22:00,20.7,19.2,30.08,ENE,78,0.0,1.0,94,0.01,,,0.03,0.0,meteohub,2013-12-09 04:22:00,
2013-12-08 23:27:00,20.7,19.2,30.08,ENE,78,0.0,1.0,94,0.01,,,0.03,0.0,meteohub,2013-12-09 04:27:00,
2013-12-08 23:32:00,20.8,19.2,30.08,ENE,78,0.0,1.0,93,0.01,,,0.03,0.0,meteohub,2013-12-09 04:32:00,
2013-12-08 23:37:00,20.8,19.2,30.07,ENE,78,1.0,1.0,93,0.01,,,0.03,0.0,meteohub,2013-12-09 04:37:00,
2013-12-08 23:42:00,20.8,19.2,30.06,ENE,78,0.0,1.0,93,0.01,,,0.03,0.0,meteohub,2013-12-09 04:42:00,
2013-12-08 23:47:00,20.8,19.4,30.06,ENE,78,0.0,2.0,94,0.01,,,0.03,0.0,meteohub,2013-12-09 04:47:00,
2013-12-08 23:52:00,21.0,19.6,30.06,ENE,78,0.0,2.0,94,0.01,,,0.03,0.0,meteohub,2013-12-09 04:52:00,
2013-12-08 23:57:00,21.0,19.6,30.05,ENE,78,0.0,2.0,94,0.01,,,0.03,0.0,meteohub,2013-12-09 04:57:00,